Time;durP1;ratioP1;P1;durP2;ratioP2;P2;SDS_P1;SDS_P2;PMS_P1;PMS_P2;Temp;Humidity;BMP_temperature;BMP_pressure;BME280_temperature;BME280_humidity;BME280_pressure;Samples;Min_cycle;Max_cycle;Signal;HPM_P1;HPM_P2
2023/04/04 00:06:28;;;;;;;1.80;0.70;;;3.90;1.00;;;;;;20715586;28;20044;-43
2023/04/04 00:16:29;;;;;;;0.93;0.70;;;3.90;1.00;;;;;;20794043;28;20406;-42
2023/04/04 00:26:30;;;;;;;6.40;1.48;;;3.90;1.00;;;;;;20809308;28;20048;-43
2023/04/04 00:36:31;;;;;;;1.60;0.82;;;3.80;1.00;;;;;;20814407;28;21628;-43
2023/04/04 00:46:32;;;;;;;2.38;1.20;;;3.90;1.00;;;;;;20810614;28;20037;-43
2023/04/04 00:56:38;;;;;;;2.92;1.33;;;3.70;1.00;;;;;;20769726;28;20038;-43
2023/04/04 01:06:40;;;;;;;1.80;0.77;;;3.60;1.00;;;;;;20718262;28;20041;-42
2023/04/04 01:16:41;;;;;;;2.35;1.10;;;3.60;1.00;;;;;;20727132;28;20689;-42
2023/04/04 01:26:42;;;;;;;1.63;0.80;;;3.50;1.00;;;;;;20721512;28;20033;-42
2023/04/04 01:37:11;;;;;;;3.33;1.50;;;3.30;1.00;;;;;;20781494;28;20056;-43
2023/04/04 01:47:12;;;;;;;2.42;1.17;;;3.20;1.00;;;;;;20793969;28;20026;-43
2023/04/04 01:57:13;;;;;;;1.48;0.57;;;3.10;1.00;;;;;;20736531;28;20385;-42
2023/04/04 02:07:14;;;;;;;2.03;0.80;;;3.00;1.00;;;;;;20788987;28;20037;-43
2023/04/04 02:17:16;;;;;;;3.47;1.45;;;2.90;1.00;;;;;;20770954;28;20622;-43
2023/04/04 02:27:17;;;;;;;2.75;1.15;;;2.80;1.00;;;;;;20724160;28;20040;-43
2023/04/04 02:37:18;;;;;;;2.83;1.08;;;2.70;1.00;;;;;;20736273;28;20148;-43
2023/04/04 02:47:19;;;;;;;2.45;0.70;;;2.50;1.00;;;;;;20796853;28;20029;-43
2023/04/04 02:57:20;;;;;;;4.78;1.65;;;2.40;1.00;;;;;;20796706;28;20382;-43
2023/04/04 03:07:21;;;;;;;2.35;1.23;;;2.30;1.00;;;;;;20799761;28;20040;-43
2023/04/04 03:17:22;;;;;;;1.85;1.00;;;2.20;1.00;;;;;;20788043;28;20052;-42
2023/04/04 03:27:23;;;;;;;3.85;1.63;;;2.10;1.00;;;;;;20803705;28;20481;-43
2023/04/04 03:37:24;;;;;;;3.63;1.52;;;2.10;1.00;;;;;;20791234;28;20527;-43
2023/04/04 03:47:25;;;;;;;2.65;1.55;;;1.90;1.00;;;;;;20790648;28;20409;-42
2023/04/04 03:57:26;;;;;;;4.55;1.83;;;1.90;1.00;;;;;;20792898;28;20045;-43
2023/04/04 04:07:27;;;;;;;2.65;1.15;;;1.80;1.00;;;;;;20790772;28;20040;-43
2023/04/04 04:17:28;;;;;;;3.38;1.55;;;1.70;1.00;;;;;;20755003;28;20291;-43
2023/04/04 04:27:30;;;;;;;7.55;1.80;;;1.60;1.00;;;;;;20805870;28;20061;-43
2023/04/04 04:37:31;;;;;;;2.22;1.30;;;1.50;1.00;;;;;;20792152;28;20352;-43
2023/04/04 04:47:32;;;;;;;5.60;2.22;;;1.50;1.00;;;;;;20787590;28;20041;-43
2023/04/04 04:57:33;;;;;;;2.50;1.25;;;1.40;1.00;;;;;;20796544;28;20044;-42
2023/04/04 05:07:34;;;;;;;2.83;1.88;;;1.50;1.00;;;;;;20783487;28;20427;-43
2023/04/04 05:17:35;;;;;;;2.22;1.25;;;1.40;1.00;;;;;;20805112;28;20037;-43
2023/04/04 05:27:36;;;;;;;2.22;1.40;;;1.30;1.00;;;;;;20802928;28;20483;-42
2023/04/04 05:37:39;;;;;;;3.15;1.25;;;1.20;1.00;;;;;;20798331;28;20049;-43
2023/04/04 05:47:42;;;;;;;4.05;1.55;;;1.20;1.00;;;;;;20809036;28;20033;-43
2023/04/04 05:57:48;;;;;;;9.10;1.92;;;1.30;1.00;;;;;;20743169;28;20033;-43
2023/04/04 06:07:49;;;;;;;4.97;1.85;;;1.30;1.00;;;;;;20720192;28;20042;-43
2023/04/04 06:17:50;;;;;;;6.63;2.55;;;1.30;1.00;;;;;;20715516;28;20060;-43
2023/04/04 06:27:51;;;;;;;5.55;1.75;;;1.50;1.00;;;;;;20713397;28;20046;-43
2023/04/04 06:37:55;;;;;;;5.18;2.13;;;1.70;1.00;;;;;;20715258;28;20052;-43
2023/04/04 06:47:56;;;;;;;4.10;1.48;;;2.00;1.00;;;;;;20724885;28;20500;-43
2023/04/04 06:57:57;;;;;;;8.35;3.45;;;2.40;1.00;;;;;;20733740;28;20501;-43
2023/04/04 07:07:58;;;;;;;1.63;0.85;;;2.70;1.00;;;;;;20743826;28;20572;-43
2023/04/04 07:18:00;;;;;;;3.83;1.90;;;3.00;1.00;;;;;;20718816;28;20052;-43
2023/04/04 07:28:01;;;;;;;2.65;1.23;;;3.40;1.00;;;;;;20734082;28;20037;-43
2023/04/04 07:38:03;;;;;;;2.75;1.95;;;3.70;1.00;;;;;;20728044;28;20045;-43
2023/04/04 07:48:04;;;;;;;3.78;1.02;;;4.10;1.00;;;;;;20731954;28;20535;-43
2023/04/04 07:58:05;;;;;;;1.95;1.20;;;4.50;1.00;;;;;;20716162;28;20053;-43
2023/04/04 08:08:07;;;;;;;3.42;1.27;;;5.00;1.00;;;;;;20693639;28;20053;-43
2023/04/04 08:18:08;;;;;;;2.47;1.00;;;5.60;1.00;;;;;;20713026;28;20113;-43
2023/04/04 08:28:09;;;;;;;1.40;0.60;;;6.00;1.00;;;;;;20712422;28;20053;-43
2023/04/04 08:38:10;;;;;;;2.10;0.90;;;6.40;1.00;;;;;;20751167;28;20045;-43
2023/04/04 08:48:14;;;;;;;1.10;0.65;;;6.90;1.00;;;;;;20735525;28;20059;-43
2023/04/04 08:58:16;;;;;;;4.93;1.40;;;7.50;1.00;;;;;;20721645;28;20045;-43
2023/04/04 09:08:17;;;;;;;2.05;0.45;;;8.10;1.00;;;;;;20709709;28;20501;-44
2023/04/04 09:18:18;;;;;;;1.35;0.82;;;8.20;1.00;;;;;;20724987;28;20470;-44
2023/04/04 09:28:21;;;;;;;1.05;0.70;;;8.50;1.00;;;;;;20738888;28;20076;-43
2023/04/04 09:38:23;;;;;;;1.83;0.70;;;9.10;1.00;;;;;;20742195;28;20057;-43
2023/04/04 09:48:31;;;;;;;1.48;0.70;;;8.90;1.00;;;;;;20727431;28;20045;-44
2023/04/04 09:58:35;;;;;;;1.85;1.10;;;9.10;1.00;;;;;;20732120;28;20226;-43
2023/04/04 10:08:39;;;;;;;7.82;0.68;;;9.60;1.00;;;;;;20758826;28;20415;-43
2023/04/04 10:18:41;;;;;;;3.00;1.58;;;9.80;1.00;;;;;;20736083;28;20493;-43
2023/04/04 10:28:42;;;;;;;2.78;1.55;;;10.30;1.00;;;;;;20724621;28;20033;-43
2023/04/04 10:38:50;;;;;;;0.93;0.47;;;10.60;1.00;;;;;;20731915;28;20045;-43
2023/04/04 10:48:52;;;;;;;1.98;0.63;;;10.70;1.00;;;;;;20712557;28;20048;-43
2023/04/04 10:59:12;;;;;;;2.50;0.77;;;10.90;1.00;;;;;;20740586;28;20551;-43
2023/04/04 11:09:14;;;;;;;3.97;1.25;;;10.80;1.00;;;;;;20786171;28;20593;-44
2023/04/04 11:19:16;;;;;;;2.58;1.15;;;11.20;1.00;;;;;;20795169;28;20493;-43
2023/04/04 11:29:40;;;;;;;3.58;1.55;;;12.10;1.00;;;;;;20784541;28;20352;-43
2023/04/04 11:39:56;;;;;;;3.65;0.80;;;12.30;1.00;;;;;;20718049;28;20931;-41
2023/04/04 11:50:06;;;;;;;2.97;1.30;;;12.20;1.00;;;;;;20708808;28;20061;-43
2023/04/04 12:00:07;;;;;;;1.92;0.60;;;12.30;1.00;;;;;;20714794;28;20120;-42
2023/04/04 12:10:09;;;;;;;1.58;0.70;;;13.00;1.00;;;;;;20720642;28;20053;-43
2023/04/04 12:20:15;;;;;;;3.17;0.80;;;13.50;1.00;;;;;;20743725;28;21040;-42
2023/04/04 12:30:16;;;;;;;2.35;0.90;;;13.80;1.00;;;;;;20721628;28;20401;-43
2023/04/04 12:40:19;;;;;;;1.50;0.93;;;14.20;1.00;;;;;;20741435;28;1119760;-43
2023/04/04 12:50:26;;;;;;;2.13;0.93;;;13.90;1.00;;;;;;20729814;28;20039;-42
2023/04/04 13:00:28;;;;;;;1.80;0.77;;;14.00;1.00;;;;;;20765979;28;20037;-43
2023/04/04 13:10:29;;;;;;;1.50;0.68;;;14.10;1.00;;;;;;20807920;28;20076;-43
2023/04/04 13:20:30;;;;;;;1.75;0.70;;;14.70;1.00;;;;;;20726100;28;21461;-41
2023/04/04 13:30:34;;;;;;;1.98;0.90;;;15.30;1.00;;;;;;20736448;28;20061;-41
2023/04/04 13:40:35;;;;;;;1.58;0.75;;;15.10;1.00;;;;;;20739819;28;20308;-41
2023/04/04 13:50:38;;;;;;;2.72;1.30;;;15.80;1.00;;;;;;20715186;28;20038;-42
2023/04/04 14:00:39;;;;;;;1.33;0.50;;;16.00;1.00;;;;;;20737089;28;20616;-41
2023/04/04 14:10:40;;;;;;;2.78;0.82;;;15.30;1.00;;;;;;20737435;28;20141;-41
2023/04/04 14:20:41;;;;;;;2.88;1.20;;;15.10;1.00;;;;;;20744124;28;20034;-41
2023/04/04 14:30:42;;;;;;;3.72;0.90;;;14.50;1.00;;;;;;20724402;28;20037;-40
2023/04/04 14:40:44;;;;;;;2.13;1.15;;;13.90;1.00;;;;;;20729689;28;20068;-42
2023/04/04 14:50:45;;;;;;;2.97;1.40;;;13.70;1.00;;;;;;20735034;28;20148;-43
2023/04/04 15:00:48;;;;;;;2.33;1.15;;;12.60;1.00;;;;;;20717286;28;20048;-42
2023/04/04 15:10:49;;;;;;;1.30;0.90;;;12.10;1.00;;;;;;20726948;28;20030;-43
2023/04/04 15:20:50;;;;;;;3.05;1.00;;;11.80;1.00;;;;;;20720347;28;20049;-42
2023/04/04 15:30:51;;;;;;;3.53;1.23;;;11.60;1.00;;;;;;20725157;28;20041;-42
2023/04/04 15:40:52;;;;;;;3.60;1.67;;;11.60;1.00;;;;;;20730120;28;20045;-42
2023/04/04 15:51:01;;;;;;;3.95;1.10;;;11.30;1.00;;;;;;20728682;28;22200;-42
2023/04/04 16:01:02;;;;;;;2.95;1.25;;;11.00;1.00;;;;;;20793039;28;20402;-42
2023/04/04 16:11:03;;;;;;;1.77;0.95;;;10.80;1.00;;;;;;20812796;28;20034;-42
2023/04/04 16:21:05;;;;;;;6.50;2.10;;;10.60;1.00;;;;;;20805523;28;20068;-42
2023/04/04 16:31:06;;;;;;;2.47;1.63;;;10.50;1.00;;;;;;20784557;28;20489;-42
2023/04/04 16:41:07;;;;;;;2.35;1.20;;;10.20;1.00;;;;;;20764460;28;20420;-42
2023/04/04 16:51:08;;;;;;;2.22;0.80;;;9.90;1.00;;;;;;20773437;28;20037;-43
2023/04/04 17:01:12;;;;;;;3.20;1.05;;;9.90;1.00;;;;;;20800812;28;20879;-43
2023/04/04 17:11:14;;;;;;;4.28;1.40;;;9.80;1.00;;;;;;20807469;28;20495;-43
2023/04/04 17:21:15;;;;;;;4.82;1.48;;;9.60;1.00;;;;;;20799607;28;20033;-43
2023/04/04 17:31:17;;;;;;;2.00;1.25;;;9.30;1.00;;;;;;20789278;28;20048;-43
2023/04/04 17:41:18;;;;;;;4.05;1.00;;;9.10;1.00;;;;;;20792807;28;20052;-43
2023/04/04 17:51:19;;;;;;;2.38;1.15;;;9.00;1.00;;;;;;20746089;28;20033;-42
2023/04/04 18:01:21;;;;;;;3.75;1.73;;;8.90;1.00;;;;;;20707344;28;20048;-43
2023/04/04 18:11:22;;;;;;;4.20;1.40;;;8.80;1.00;;;;;;20705548;28;20258;-43
2023/04/04 18:21:23;;;;;;;7.15;2.20;;;8.70;1.00;;;;;;20735893;28;20045;-42
2023/04/04 18:31:26;;;;;;;3.85;1.58;;;8.60;1.00;;;;;;20785402;28;20076;-43
2023/04/04 18:41:27;;;;;;;4.82;2.47;;;8.40;1.00;;;;;;20788760;28;20044;-43
2023/04/04 18:51:28;;;;;;;4.35;1.70;;;8.40;1.00;;;;;;20791411;28;20588;-42
2023/04/04 19:01:30;;;;;;;4.47;1.50;;;8.10;1.00;;;;;;20742443;28;20038;-43
2023/04/04 19:11:31;;;;;;;3.75;1.63;;;8.10;1.00;;;;;;20725558;28;20542;-42
2023/04/04 19:21:32;;;;;;;2.75;1.70;;;8.00;1.00;;;;;;20768734;28;20037;-43
2023/04/04 19:31:33;;;;;;;4.60;1.70;;;7.80;1.00;;;;;;20729637;28;20045;-43
2023/04/04 19:41:36;;;;;;;3.58;1.80;;;7.70;1.00;;;;;;20705366;28;20123;-43
2023/04/04 19:51:40;;;;;;;2.22;1.48;;;7.60;1.00;;;;;;20689681;28;20099;-43
2023/04/04 20:01:41;;;;;;;4.43;1.50;;;7.60;1.00;;;;;;20687995;28;20045;-43
2023/04/04 20:11:42;;;;;;;2.90;1.40;;;7.50;1.00;;;;;;20697653;28;20382;-42
2023/04/04 20:21:43;;;;;;;4.18;2.42;;;7.30;1.00;;;;;;20694305;28;20038;-43
2023/04/04 20:31:52;;;;;;;5.38;2.75;;;7.20;1.00;;;;;;20714068;28;20049;-43
2023/04/04 20:41:54;;;;;;;8.00;2.92;;;7.10;1.00;;;;;;20712550;28;20041;-43
2023/04/04 20:51:55;;;;;;;5.95;2.25;;;7.00;1.00;;;;;;20707086;28;20144;-43
2023/04/04 21:02:11;;;;;;;4.85;2.75;;;6.90;1.00;;;;;;20711806;28;20045;-43
2023/04/04 21:12:13;;;;;;;6.53;2.15;;;6.80;1.00;;;;;;20722655;28;20042;-43
2023/04/04 21:22:15;;;;;;;4.72;2.05;;;6.70;1.00;;;;;;20742349;28;20041;-42
2023/04/04 21:32:20;;;;;;;3.92;2.00;;;6.70;1.00;;;;;;20767579;28;20049;-42
2023/04/04 21:42:21;;;;;;;5.07;2.58;;;6.70;1.00;;;;;;20728982;28;20052;-42
2023/04/04 21:52:22;;;;;;;2.97;1.85;;;6.70;1.00;;;;;;20721825;28;20045;-42
2023/04/04 22:02:24;;;;;;;3.38;1.30;;;6.70;1.00;;;;;;20784938;28;20075;-43
2023/04/04 22:12:25;;;;;;;3.58;1.52;;;6.70;1.00;;;;;;20810381;28;20040;-43
2023/04/04 22:22:28;;;;;;;2.55;1.50;;;6.70;1.00;;;;;;20804350;28;20049;-43
2023/04/04 22:32:32;;;;;;;3.90;1.65;;;6.50;1.00;;;;;;20797321;28;20032;-42
2023/04/04 22:42:33;;;;;;;3.70;1.63;;;6.30;1.00;;;;;;20719275;28;21430;-42
2023/04/04 22:52:40;;;;;;;3.38;2.13;;;5.90;1.00;;;;;;20722549;28;20048;-43
2023/04/04 23:02:43;;;;;;;4.18;1.77;;;5.70;1.00;;;;;;20771609;28;20037;-42
2023/04/04 23:12:45;;;;;;;4.78;2.67;;;5.50;1.00;;;;;;20795123;28;20312;-43
2023/04/04 23:22:46;;;;;;;3.13;1.63;;;5.40;1.00;;;;;;20792714;28;20048;-42
2023/04/04 23:32:47;;;;;;;10.98;3.17;;;5.20;1.00;;;;;;20736747;28;20791;-42
2023/04/04 23:42:48;;;;;;;4.40;1.80;;;5.20;1.00;;;;;;20746925;28;20046;-43
2023/04/04 23:52:49;;;;;;;5.43;2.10;;;5.00;1.00;;;;;;20789422;28;20036;-43
